Time;durP1;ratioP1;P1;durP2;ratioP2;P2;SDS_P1;SDS_P2;PMS_P1;PMS_P2;Temp;Humidity;BMP_temperature;BMP_pressure;BME280_temperature;BME280_humidity;BME280_pressure;Samples;Min_cycle;Max_cycle;Signal;HPM_P1;HPM_P2
2022/06/11 00:01:58;;;;;;;4.30;1.48;;;21.20;68.30;;;;;;5032443;28;20032;-73
2022/06/11 00:04:29;;;;;;;10.53;1.43;;;21.10;68.40;;;;;;5032747;28;20025;-73
2022/06/11 00:07:02;;;;;;;2.88;1.10;;;21.10;68.30;;;;;;5032511;28;20017;-73
2022/06/11 00:09:27;;;;;;;3.85;1.38;;;21.20;68.40;;;;;;5032123;28;20119;-73
2022/06/11 00:11:53;;;;;;;10.05;1.35;;;21.20;68.40;;;;;;5032507;28;20492;-73
2022/06/11 00:14:21;;;;;;;2.65;1.10;;;21.20;68.40;;;;;;5032493;28;20104;-74
2022/06/11 00:16:47;;;;;;;3.75;1.27;;;21.10;68.30;;;;;;5032305;28;20030;-73
2022/06/11 00:19:12;;;;;;;4.75;1.08;;;21.20;68.40;;;;;;5033711;28;20035;-73
2022/06/11 00:21:39;;;;;;;6.28;1.17;;;21.10;68.30;;;;;;5036433;28;20029;-73
2022/06/11 00:24:05;;;;;;;4.50;1.33;;;21.20;68.40;;;;;;5035900;28;20025;-73
2022/06/11 00:26:31;;;;;;;3.45;1.33;;;21.20;68.40;;;;;;5035621;28;20020;-73
2022/06/11 00:28:57;;;;;;;8.07;1.40;;;21.20;68.40;;;;;;5052137;28;20021;-73
2022/06/11 00:31:22;;;;;;;3.50;1.52;;;21.10;68.40;;;;;;5053595;28;20028;-73
2022/06/11 00:33:48;;;;;;;4.30;1.30;;;21.20;68.40;;;;;;5051867;28;20043;-73
2022/06/11 00:36:16;;;;;;;3.42;1.15;;;21.10;68.50;;;;;;5053338;28;20028;-73
2022/06/11 00:38:42;;;;;;;4.40;1.20;;;21.20;68.50;;;;;;5053184;28;20021;-73
2022/06/11 00:41:07;;;;;;;5.40;1.50;;;21.10;68.40;;;;;;5051948;28;20029;-73
2022/06/11 00:43:33;;;;;;;2.13;1.50;;;21.10;68.50;;;;;;5052727;28;20056;-73
2022/06/11 00:46:40;;;;;;;4.47;1.05;;;21.10;68.60;;;;;;5046162;28;20082;-73
2022/06/11 00:49:29;;;;;;;3.28;1.30;;;21.20;68.50;;;;;;5033101;28;20021;-73
2022/06/11 00:52:31;;;;;;;2.78;1.23;;;21.10;68.50;;;;;;5032026;28;20021;-73
2022/06/11 00:55:10;;;;;;;4.05;1.10;;;21.20;68.50;;;;;;5050517;28;20032;-73
2022/06/11 00:57:43;;;;;;;3.75;1.10;;;21.20;68.70;;;;;;5034062;28;20037;-73
2022/06/11 01:00:15;;;;;;;5.32;1.45;;;21.10;68.50;;;;;;5034388;28;20060;-73
2022/06/11 01:02:44;;;;;;;;;;;21.10;68.50;;;;;;5035135;28;20588;-73
2022/06/11 01:05:13;;;;;;;5.53;1.20;;;21.10;68.50;;;;;;5033964;28;19916;-73
2022/06/11 01:08:00;;;;;;;5.30;1.10;;;21.10;68.60;;;;;;5017628;28;20021;-73
2022/06/11 01:10:44;;;;;;;4.80;1.58;;;21.10;68.60;;;;;;5034704;28;20110;-73
2022/06/11 01:13:35;;;;;;;5.88;1.13;;;21.10;68.60;;;;;;5050567;28;20557;-73
2022/06/11 01:16:09;;;;;;;3.50;1.20;;;21.10;68.60;;;;;;5033901;28;20068;-74
2022/06/11 01:18:40;;;;;;;4.63;1.65;;;21.10;68.60;;;;;;5018009;28;20032;-73
2022/06/11 01:21:32;;;;;;;5.53;1.20;;;21.10;68.70;;;;;;5033573;28;20458;-73
2022/06/11 01:24:34;;;;;;;4.43;1.20;;;21.10;68.70;;;;;;5053551;28;20016;-73
2022/06/11 01:27:01;;;;;;;4.47;1.35;;;21.10;68.60;;;;;;5070242;28;20131;-74
2022/06/11 01:29:37;;;;;;;7.03;1.52;;;21.10;68.70;;;;;;5042664;28;20492;-73
2022/06/11 01:32:24;;;;;;;3.75;1.00;;;21.10;68.70;;;;;;5031222;28;20507;-73
2022/06/11 01:35:28;;;;;;;2.28;1.10;;;21.10;68.70;;;;;;5032178;28;20100;-73
2022/06/11 01:38:03;;;;;;;3.53;1.20;;;21.10;68.70;;;;;;5032463;28;20064;-73
2022/06/11 01:40:48;;;;;;;2.53;1.30;;;21.10;68.70;;;;;;5031251;28;20458;-73
2022/06/11 01:43:19;;;;;;;3.17;1.50;;;21.10;68.70;;;;;;5032248;28;20034;-73
2022/06/11 01:45:45;;;;;;;4.38;1.25;;;21.10;68.70;;;;;;5030648;28;20504;-73
2022/06/11 01:48:14;;;;;;;4.82;1.38;;;21.10;68.80;;;;;;5031149;28;20053;-73
2022/06/11 01:50:42;;;;;;;3.58;1.10;;;21.10;68.70;;;;;;5030932;28;20100;-73
2022/06/11 01:53:23;;;;;;;4.95;1.38;;;21.10;68.80;;;;;;5031305;28;20022;-73
2022/06/11 01:55:58;;;;;;;3.40;1.20;;;21.00;68.70;;;;;;5030934;28;20507;-73
2022/06/11 01:59:16;;;;;;;3.03;1.05;;;21.10;68.80;;;;;;5031835;28;20105;-73
2022/06/11 02:02:03;;;;;;;3.38;1.10;;;21.10;68.70;;;;;;5027322;28;20539;-74
2022/06/11 02:04:51;;;;;;;4.18;1.30;;;21.10;68.80;;;;;;5031870;28;20033;-73
2022/06/11 02:07:48;;;;;;;3.10;1.02;;;21.10;68.80;;;;;;5031132;28;20024;-73
2022/06/11 02:10:43;;;;;;;12.95;1.50;;;21.00;68.70;;;;;;5049591;28;20033;-73
2022/06/11 02:13:38;;;;;;;17.83;1.55;;;21.10;68.80;;;;;;5017996;28;20051;-73
2022/06/11 02:16:15;;;;;;;2.78;1.00;;;21.10;68.70;;;;;;5034568;28;20069;-73
2022/06/11 02:18:41;;;;;;;4.55;1.63;;;21.10;68.70;;;;;;5017256;28;20017;-73
2022/06/11 02:21:11;;;;;;;3.20;1.30;;;21.10;68.80;;;;;;5016458;28;20565;-74
2022/06/11 02:23:40;;;;;;;2.65;1.15;;;21.00;68.80;;;;;;5035966;28;20021;-73
2022/06/11 02:26:30;;;;;;;4.72;1.67;;;21.10;68.80;;;;;;5036305;28;20032;-73
2022/06/11 02:28:56;;;;;;;9.10;1.52;;;21.00;68.80;;;;;;5062242;28;20033;-74
2022/06/11 02:31:27;;;;;;;5.30;1.67;;;21.10;68.90;;;;;;5054393;28;20083;-73
2022/06/11 02:33:53;;;;;;;2.67;1.05;;;21.10;68.90;;;;;;5040270;28;20036;-73
2022/06/11 02:36:26;;;;;;;6.38;1.40;;;21.10;68.90;;;;;;5040140;28;20108;-73
2022/06/11 02:38:53;;;;;;;2.55;1.30;;;21.10;68.90;;;;;;5057101;28;20039;-73
2022/06/11 02:41:21;;;;;;;3.58;1.10;;;21.10;68.90;;;;;;5056511;28;20032;-73
2022/06/11 02:43:47;;;;;;;4.22;1.00;;;21.10;68.90;;;;;;5056358;28;20032;-73
2022/06/11 02:48:57;;;;;;;5.28;1.40;;;21.10;68.90;;;;;;5035405;28;20033;-73
2022/06/11 02:51:24;;;;;;;6.47;1.60;;;21.00;68.90;;;;;;5034338;28;20029;-73
2022/06/11 02:53:49;;;;;;;6.75;1.33;;;21.00;68.80;;;;;;5034063;28;20035;-73
2022/06/11 02:56:15;;;;;;;3.45;1.13;;;21.00;68.80;;;;;;5035012;28;20100;-74
2022/06/11 02:58:42;;;;;;;1.25;0.90;;;21.00;68.90;;;;;;5034128;28;20029;-73
2022/06/11 03:01:07;;;;;;;3.88;1.30;;;21.10;68.90;;;;;;5033942;28;20033;-73
2022/06/11 03:03:33;;;;;;;2.85;1.20;;;21.00;68.90;;;;;;5033944;28;20017;-73
2022/06/11 03:05:59;;;;;;;6.70;1.40;;;21.00;69.00;;;;;;5033766;28;20084;-73
2022/06/11 03:08:25;;;;;;;3.90;1.25;;;21.00;69.00;;;;;;5033792;28;20026;-73
2022/06/11 03:10:54;;;;;;;5.85;1.33;;;21.00;69.00;;;;;;5034484;28;20049;-73
2022/06/11 03:13:21;;;;;;;5.20;1.30;;;21.00;69.00;;;;;;5033991;28;20018;-73
2022/06/11 03:15:48;;;;;;;2.17;1.10;;;21.00;69.00;;;;;;5034745;28;20065;-73
2022/06/11 03:18:14;;;;;;;4.88;1.42;;;21.00;69.00;;;;;;5033502;28;20026;-73
2022/06/11 03:20:39;;;;;;;5.60;1.10;;;21.00;69.00;;;;;;5034667;28;20112;-73
2022/06/11 03:23:06;;;;;;;3.28;1.10;;;21.00;69.00;;;;;;5048219;28;20028;-73
2022/06/11 03:25:32;;;;;;;3.13;1.05;;;21.00;69.00;;;;;;5053231;28;20021;-73
2022/06/11 03:27:58;;;;;;;7.30;1.58;;;21.00;69.00;;;;;;5052662;28;20040;-73
2022/06/11 03:30:25;;;;;;;8.95;1.48;;;21.00;69.00;;;;;;5054402;28;20371;-73
2022/06/11 03:32:50;;;;;;;4.80;1.20;;;21.00;69.00;;;;;;5053400;28;20021;-73
2022/06/11 03:35:16;;;;;;;4.75;1.52;;;21.00;69.10;;;;;;5053249;28;20033;-74
2022/06/11 03:37:42;;;;;;;8.55;1.30;;;21.00;69.10;;;;;;5053209;28;20445;-74
2022/06/11 03:40:08;;;;;;;5.85;1.02;;;21.00;69.10;;;;;;5053086;28;20108;-73
2022/06/11 03:42:34;;;;;;;4.28;0.90;;;21.00;69.20;;;;;;5052452;28;20082;-73
2022/06/11 03:45:00;;;;;;;5.95;1.35;;;21.00;69.10;;;;;;5052166;28;20518;-73
2022/06/11 03:47:25;;;;;;;3.88;1.23;;;21.00;69.10;;;;;;5035906;28;20033;-73
2022/06/11 03:49:51;;;;;;;5.15;1.67;;;21.00;69.10;;;;;;5034250;28;20029;-73
2022/06/11 03:52:17;;;;;;;3.53;1.08;;;21.00;69.00;;;;;;5034099;28;20064;-73
2022/06/11 03:54:43;;;;;;;3.28;1.20;;;21.00;69.10;;;;;;5033940;28;20057;-73
2022/06/11 03:57:08;;;;;;;4.18;1.02;;;21.00;69.10;;;;;;5032759;28;20083;-73
2022/06/11 03:59:34;;;;;;;2.38;1.00;;;21.00;69.10;;;;;;5032848;28;20036;-74
2022/06/11 04:02:00;;;;;;;8.63;1.27;;;21.00;70.10;;;;;;5032692;28;20025;-74
2022/06/11 04:04:26;;;;;;;2.83;1.00;;;21.00;69.10;;;;;;5032779;28;20022;-73
2022/06/11 04:06:57;;;;;;;4.65;1.38;;;21.00;69.00;;;;;;5033660;28;20507;-74
2022/06/11 04:09:31;;;;;;;3.92;1.75;;;21.00;69.10;;;;;;5033781;28;20480;-73
2022/06/11 04:11:57;;;;;;;3.38;1.35;;;21.00;69.00;;;;;;5032556;28;20017;-74
2022/06/11 04:14:23;;;;;;;2.47;1.20;;;21.00;69.10;;;;;;5032646;28;20025;-73
2022/06/11 04:16:54;;;;;;;7.60;1.30;;;21.00;69.10;;;;;;5033790;28;20052;-73
2022/06/11 04:19:25;;;;;;;1.70;1.25;;;21.00;69.10;;;;;;5032755;28;20026;-73
2022/06/11 04:21:51;;;;;;;3.47;0.95;;;21.00;69.10;;;;;;5036774;28;20021;-73
2022/06/11 04:24:17;;;;;;;7.00;1.13;;;21.00;69.10;;;;;;5035621;28;20060;-73
2022/06/11 04:26:45;;;;;;;3.13;1.10;;;21.00;69.10;;;;;;5052302;28;20060;-73
2022/06/11 04:29:12;;;;;;;2.45;1.27;;;21.00;69.10;;;;;;5035752;28;20372;-76
2022/06/11 04:31:38;;;;;;;3.45;1.20;;;20.90;69.10;;;;;;5052211;28;20052;-73
2022/06/11 04:34:04;;;;;;;8.75;1.75;;;20.90;69.10;;;;;;5053247;28;20040;-73
2022/06/11 04:36:30;;;;;;;4.75;1.25;;;20.90;69.10;;;;;;5051838;28;20028;-73
2022/06/11 04:38:56;;;;;;;6.20;1.17;;;20.90;69.10;;;;;;5052003;28;20029;-74
2022/06/11 04:41:22;;;;;;;3.00;1.08;;;20.90;69.10;;;;;;5053160;28;20207;-73
2022/06/11 04:43:47;;;;;;;4.40;1.35;;;20.90;69.10;;;;;;5035276;28;20104;-74
2022/06/11 04:46:13;;;;;;;7.03;1.45;;;20.90;69.10;;;;;;5026777;28;20033;-73
2022/06/11 04:48:39;;;;;;;2.28;0.80;;;20.90;69.10;;;;;;5031936;28;20025;-73
2022/06/11 04:51:05;;;;;;;2.80;1.17;;;20.90;69.00;;;;;;5031596;28;20037;-73
2022/06/11 04:53:31;;;;;;;2.53;1.30;;;20.90;69.10;;;;;;5031381;28;20025;-73
2022/06/11 04:55:56;;;;;;;5.63;1.17;;;20.90;69.00;;;;;;5032983;28;20028;-74
2022/06/11 04:58:22;;;;;;;3.47;1.00;;;20.90;69.00;;;;;;5033130;28;20068;-73
2022/06/11 05:00:48;;;;;;;4.05;1.23;;;20.90;69.10;;;;;;5031778;28;20021;-73
2022/06/11 05:03:13;;;;;;;2.65;1.00;;;20.90;69.00;;;;;;5031545;28;20041;-73
2022/06/11 05:05:39;;;;;;;4.53;1.00;;;20.90;69.00;;;;;;5031256;28;20461;-74
2022/06/11 05:08:05;;;;;;;6.30;1.10;;;20.90;69.00;;;;;;5032908;28;20022;-73
2022/06/11 05:10:32;;;;;;;4.57;1.10;;;20.90;69.10;;;;;;5031554;28;20484;-73
2022/06/11 05:12:57;;;;;;;4.13;1.40;;;20.90;69.00;;;;;;5031355;28;20028;-73
2022/06/11 05:15:23;;;;;;;3.05;1.20;;;20.90;69.10;;;;;;5032727;28;20497;-73
2022/06/11 05:17:49;;;;;;;7.43;1.65;;;20.90;69.10;;;;;;5031379;28;20436;-74
2022/06/11 05:20:15;;;;;;;4.78;1.48;;;20.90;69.00;;;;;;5031191;28;20087;-73
2022/06/11 05:22:40;;;;;;;3.92;1.08;;;20.90;69.10;;;;;;5044127;28;20479;-73
2022/06/11 05:25:07;;;;;;;3.17;1.35;;;20.90;69.10;;;;;;5051008;28;20255;-73
2022/06/11 05:27:33;;;;;;;2.05;0.82;;;20.90;69.20;;;;;;5034763;28;20029;-73
2022/06/11 05:30:06;;;;;;;4.00;1.02;;;20.90;69.10;;;;;;5051173;28;20021;-73
2022/06/11 05:32:33;;;;;;;3.53;1.00;;;20.90;69.10;;;;;;5035154;28;20033;-74
2022/06/11 05:35:04;;;;;;;3.13;1.05;;;20.90;69.10;;;;;;5050854;28;20051;-74
2022/06/11 05:37:30;;;;;;;5.20;1.40;;;20.90;69.20;;;;;;5051120;28;20033;-74
2022/06/11 05:39:56;;;;;;;2.55;1.13;;;20.90;69.20;;;;;;5051391;28;20036;-73
2022/06/11 05:42:22;;;;;;;3.03;0.90;;;20.90;69.30;;;;;;5051842;28;20100;-73
2022/06/11 05:44:48;;;;;;;3.53;1.00;;;20.90;69.30;;;;;;5034502;28;20136;-73
2022/06/11 05:47:15;;;;;;;2.47;1.02;;;20.90;69.30;;;;;;5035323;28;20108;-74
2022/06/11 05:49:42;;;;;;;1.88;0.88;;;20.90;69.30;;;;;;5030831;28;20129;-73
2022/06/11 05:52:16;;;;;;;2.40;1.25;;;20.90;69.40;;;;;;5030906;28;20384;-73
2022/06/11 05:54:42;;;;;;;1.90;0.82;;;20.90;69.50;;;;;;5031224;28;20060;-73
2022/06/11 05:57:09;;;;;;;2.63;1.05;;;20.90;69.50;;;;;;5030762;28;20123;-74
2022/06/11 05:59:39;;;;;;;2.45;0.98;;;20.80;69.40;;;;;;5031014;28;20022;-73
2022/06/11 06:02:08;;;;;;;1.63;0.90;;;20.90;69.50;;;;;;5030979;28;20063;-73
2022/06/11 06:04:34;;;;;;;2.47;1.10;;;20.80;69.40;;;;;;5030813;28;20095;-74
2022/06/11 06:07:00;;;;;;;6.10;1.48;;;20.90;69.50;;;;;;5033361;28;20472;-73
2022/06/11 06:09:26;;;;;;;3.85;0.95;;;20.80;69.40;;;;;;5036107;28;20056;-73
2022/06/11 06:11:51;;;;;;;2.30;1.17;;;20.80;69.50;;;;;;5035869;28;20061;-73
2022/06/11 06:14:17;;;;;;;4.22;1.00;;;20.80;69.50;;;;;;5034739;28;20559;-73
2022/06/11 06:16:42;;;;;;;3.15;1.20;;;20.80;69.50;;;;;;5036177;28;20038;-73
2022/06/11 06:19:08;;;;;;;3.80;1.13;;;20.80;69.50;;;;;;5035573;28;20029;-73
2022/06/11 06:21:34;;;;;;;1.95;1.25;;;20.80;69.50;;;;;;5038224;28;20026;-73
2022/06/11 06:24:00;;;;;;;4.50;1.30;;;20.80;69.60;;;;;;5054640;28;20082;-73
2022/06/11 06:26:26;;;;;;;3.33;1.15;;;20.80;69.60;;;;;;5054582;28;20115;-73
2022/06/11 06:28:51;;;;;;;2.95;0.77;;;20.80;69.60;;;;;;5037950;28;20027;-73
2022/06/11 06:31:17;;;;;;;2.85;1.13;;;20.80;69.50;;;;;;5054325;28;20122;-73
2022/06/11 06:33:43;;;;;;;4.97;1.30;;;20.80;69.50;;;;;;5055404;28;20446;-73
2022/06/11 06:36:09;;;;;;;2.60;0.80;;;20.80;69.50;;;;;;5054362;28;20021;-73
2022/06/11 06:38:35;;;;;;;3.95;1.25;;;20.80;69.50;;;;;;5055415;28;20021;-73
2022/06/11 06:41:00;;;;;;;2.10;1.00;;;20.80;69.50;;;;;;5054361;28;20028;-74
2022/06/11 06:43:26;;;;;;;3.88;1.02;;;20.80;69.50;;;;;;5054102;28;20024;-73
2022/06/11 06:45:52;;;;;;;2.90;1.20;;;20.80;69.50;;;;;;5049659;28;20124;-73
2022/06/11 06:48:17;;;;;;;4.53;1.17;;;20.80;69.50;;;;;;5033749;28;20108;-74
2022/06/11 06:50:43;;;;;;;2.92;0.98;;;20.80;69.50;;;;;;5034395;28;20033;-73
2022/06/11 06:53:09;;;;;;;2.45;1.00;;;20.80;69.50;;;;;;5033916;28;20033;-73
2022/06/11 06:55:35;;;;;;;1.42;1.08;;;20.80;69.50;;;;;;5034018;28;20026;-73
2022/06/11 06:58:00;;;;;;;4.65;1.15;;;20.80;69.50;;;;;;5035271;28;20036;-74
2022/06/11 07:00:26;;;;;;;1.80;0.82;;;20.80;69.60;;;;;;5034487;28;20041;-74
2022/06/11 07:02:54;;;;;;;1.92;0.90;;;20.80;69.50;;;;;;5037037;28;20034;-73
2022/06/11 07:05:21;;;;;;;5.13;1.30;;;20.80;69.60;;;;;;5033518;28;20033;-73
2022/06/11 07:07:48;;;;;;;2.85;0.90;;;20.80;69.70;;;;;;5038825;28;20045;-73
2022/06/11 07:10:14;;;;;;;3.20;1.08;;;20.80;69.70;;;;;;5034490;28;20100;-73
2022/06/11 07:12:39;;;;;;;2.25;1.00;;;20.80;69.80;;;;;;5032450;28;20491;-73
2022/06/11 07:15:06;;;;;;;3.72;0.80;;;20.80;69.80;;;;;;5035573;28;20021;-73
2022/06/11 07:17:35;;;;;;;1.92;1.08;;;20.80;69.80;;;;;;5038092;28;20013;-73
2022/06/11 07:20:07;;;;;;;1.13;0.60;;;20.80;69.80;;;;;;5034363;28;20029;-74
2022/06/11 07:22:41;;;;;;;2.95;0.95;;;20.80;69.90;;;;;;5041034;28;20018;-73
2022/06/11 07:25:07;;;;;;;3.33;1.15;;;20.80;69.90;;;;;;5034172;28;20026;-74
2022/06/11 07:27:35;;;;;;;4.18;0.93;;;20.80;70.00;;;;;;5031928;28;20391;-74
2022/06/11 07:30:05;;;;;;;14.23;1.20;;;20.80;70.00;;;;;;5032289;28;20028;-73
2022/06/11 07:32:35;;;;;;;10.52;2.00;;;20.80;70.00;;;;;;5031606;28;20025;-73
2022/06/11 07:35:05;;;;;;;9.05;1.85;;;20.80;67.70;;;;;;5035762;28;20490;-73
2022/06/11 07:37:31;;;;;;;10.07;2.25;;;20.70;67.10;;;;;;5033804;28;20021;-74
2022/06/11 07:39:57;;;;;;;14.88;2.63;;;20.60;66.30;;;;;;5034257;28;20104;-73
2022/06/11 07:42:22;;;;;;;13.63;2.67;;;20.50;65.20;;;;;;5034955;28;20148;-74
2022/06/11 07:44:48;;;;;;;14.35;2.60;;;20.40;64.70;;;;;;5034572;28;20132;-73
2022/06/11 07:47:14;;;;;;;21.50;2.95;;;20.20;63.50;;;;;;5034932;28;20387;-72
2022/06/11 07:49:39;;;;;;;14.27;3.22;;;20.20;63.80;;;;;;5035613;28;20029;-73
2022/06/11 07:52:06;;;;;;;17.80;3.10;;;20.20;63.80;;;;;;5036918;28;20026;-72
2022/06/11 07:54:33;;;;;;;15.18;3.00;;;20.20;63.50;;;;;;5035429;28;20022;-72
2022/06/11 07:56:59;;;;;;;25.10;3.25;;;20.20;63.30;;;;;;5035210;28;20017;-72
2022/06/11 07:59:26;;;;;;;24.77;3.38;;;20.10;63.20;;;;;;5036120;28;20509;-72
2022/06/11 08:01:51;;;;;;;15.75;3.15;;;20.00;63.00;;;;;;5036284;28;20559;-72
2022/06/11 08:04:17;;;;;;;17.10;3.42;;;20.00;63.00;;;;;;5035922;28;20025;-72
2022/06/11 08:06:43;;;;;;;14.25;2.55;;;19.90;63.20;;;;;;5034871;28;20024;-73
2022/06/11 08:09:08;;;;;;;18.17;2.95;;;20.00;63.30;;;;;;5036977;28;20128;-73
2022/06/11 08:11:34;;;;;;;14.85;3.15;;;20.00;63.50;;;;;;5037122;28;20017;-73
2022/06/11 08:14:00;;;;;;;21.55;3.10;;;20.00;63.40;;;;;;5038247;28;20075;-72
2022/06/11 08:16:25;;;;;;;16.65;3.40;;;20.00;63.80;;;;;;5033158;28;20024;-70
2022/06/11 08:18:51;;;;;;;21.88;3.47;;;20.00;64.00;;;;;;5033484;28;20026;-73
2022/06/11 08:21:17;;;;;;;17.77;3.17;;;20.00;63.90;;;;;;5033898;28;20056;-74
2022/06/11 08:23:42;;;;;;;24.20;4.60;;;20.00;63.90;;;;;;5052602;28;20096;-74
2022/06/11 08:26:08;;;;;;;19.25;3.47;;;20.00;64.00;;;;;;5050388;28;20013;-74
2022/06/11 08:28:34;;;;;;;19.55;3.30;;;19.90;63.90;;;;;;5049414;28;20389;-74
2022/06/11 08:31:04;;;;;;;21.38;3.88;;;19.90;64.20;;;;;;5050363;28;20059;-73
2022/06/11 08:33:31;;;;;;;18.50;3.55;;;19.90;64.20;;;;;;5051403;28;20515;-74
2022/06/11 08:35:56;;;;;;;17.75;3.05;;;19.90;64.10;;;;;;5033874;28;20025;-74
2022/06/11 08:38:22;;;;;;;16.20;3.95;;;19.90;64.00;;;;;;5051549;28;20033;-74
2022/06/11 08:40:50;;;;;;;20.38;3.17;;;19.90;63.60;;;;;;5053054;28;20025;-73
2022/06/11 08:43:38;;;;;;;24.60;3.63;;;19.90;63.70;;;;;;5035191;28;20025;-74
2022/06/11 08:46:14;;;;;;;19.70;2.63;;;19.90;63.20;;;;;;5044778;28;20055;-74
2022/06/11 08:48:47;;;;;;;19.67;3.70;;;19.90;63.80;;;;;;5030854;28;20029;-74
2022/06/11 08:51:24;;;;;;;11.48;2.58;;;19.90;63.20;;;;;;5031922;28;20018;-74
2022/06/11 08:53:50;;;;;;;15.10;3.63;;;19.90;62.80;;;;;;5031786;28;20101;-73
2022/06/11 08:56:39;;;;;;;15.35;2.90;;;19.90;62.70;;;;;;5031898;28;20025;-74
2022/06/11 08:59:27;;;;;;;17.48;3.13;;;19.90;62.90;;;;;;5031746;28;20048;-74
2022/06/11 09:02:02;;;;;;;17.48;3.45;;;19.90;62.80;;;;;;5031752;28;20120;-74
2022/06/11 09:04:37;;;;;;;12.73;2.53;;;19.80;62.70;;;;;;5032592;28;20060;-74
2022/06/11 09:07:10;;;;;;;12.73;2.38;;;19.80;62.60;;;;;;5032905;28;20036;-74
2022/06/11 09:09:54;;;;;;;12.13;2.80;;;19.80;62.40;;;;;;5031461;28;20017;-74
2022/06/11 09:12:57;;;;;;;15.18;2.83;;;19.80;62.10;;;;;;5032476;28;20029;-74
2022/06/11 09:15:50;;;;;;;13.02;2.60;;;19.70;61.30;;;;;;5032786;28;20026;-74
2022/06/11 09:18:15;;;;;;;;;;;19.80;61.90;;;;;;5033057;28;20026;-74
2022/06/11 09:20:52;;;;;;;9.95;2.97;;;19.80;62.00;;;;;;5032719;28;19927;-74
2022/06/11 09:23:30;;;;;;;15.75;3.45;;;19.80;61.70;;;;;;5047913;28;20017;-74
2022/06/11 09:26:13;;;;;;;13.63;2.17;;;19.80;61.20;;;;;;5052443;28;20032;-74
2022/06/11 09:29:06;;;;;;;13.93;2.80;;;19.70;61.20;;;;;;5043579;28;20087;-74
2022/06/11 09:31:40;;;;;;;;;;;19.70;61.50;;;;;;5050085;28;20111;-74
2022/06/11 09:34:23;;;;;;;12.85;2.35;;;19.80;61.70;;;;;;5031443;28;19988;-74
2022/06/11 09:37:03;;;;;;;16.75;3.00;;;19.80;61.70;;;;;;5040229;28;20379;-74
2022/06/11 09:39:41;;;;;;;15.93;2.58;;;19.80;61.70;;;;;;5051058;28;20526;-74
2022/06/11 09:42:16;;;;;;;12.38;2.63;;;19.70;61.30;;;;;;5034801;28;20017;-73
2022/06/11 09:44:53;;;;;;;16.17;2.35;;;19.70;61.10;;;;;;5048121;28;20049;-74
2022/06/11 09:47:25;;;;;;;16.83;2.30;;;19.70;61.30;;;;;;5032307;28;20395;-74
2022/06/11 09:49:50;;;;;;;13.23;2.30;;;19.80;61.50;;;;;;5032249;28;20061;-74
2022/06/11 09:52:26;;;;;;;15.00;2.97;;;19.80;61.00;;;;;;5032286;28;20106;-74
2022/06/11 09:54:54;;;;;;;12.20;2.50;;;19.80;61.10;;;;;;5031173;28;20104;-74
2022/06/11 09:57:44;;;;;;;17.60;3.25;;;19.70;60.90;;;;;;5030872;28;20091;-74
2022/06/11 10:00:28;;;;;;;13.13;2.10;;;19.70;60.70;;;;;;5031244;28;20032;-73
2022/06/11 10:03:11;;;;;;;13.00;2.88;;;19.70;60.40;;;;;;5044054;28;20036;-74
2022/06/11 10:05:40;;;;;;;9.73;1.73;;;19.70;60.70;;;;;;5051700;28;20025;-73
2022/06/11 10:08:29;;;;;;;12.68;2.72;;;19.70;60.90;;;;;;5051006;28;20028;-74
2022/06/11 10:10:55;;;;;;;14.63;3.20;;;19.80;61.20;;;;;;5049625;28;20606;-73
2022/06/11 10:13:26;;;;;;;11.93;2.53;;;19.80;61.00;;;;;;5049814;28;20072;-74
2022/06/11 10:15:52;;;;;;;9.48;2.45;;;19.70;60.70;;;;;;5049731;28;20047;-74
2022/06/11 10:18:21;;;;;;;15.80;2.35;;;19.70;60.60;;;;;;5033161;28;20525;-74
2022/06/11 10:21:09;;;;;;;14.93;2.55;;;19.70;60.80;;;;;;5033168;28;20101;-74
2022/06/11 10:23:42;;;;;;;7.97;2.00;;;19.70;60.60;;;;;;5035689;28;20033;-74
2022/06/11 10:26:16;;;;;;;18.50;2.70;;;19.80;60.70;;;;;;5032651;28;20107;-74
2022/06/11 10:28:58;;;;;;;9.57;2.05;;;19.80;59.90;;;;;;5030830;28;20029;-74
2022/06/11 10:31:31;;;;;;;9.43;2.00;;;19.80;59.60;;;;;;5013210;28;20017;-74
2022/06/11 10:34:03;;;;;;;12.07;1.75;;;19.80;59.90;;;;;;5029775;28;20029;-74
2022/06/11 10:36:32;;;;;;;14.30;2.80;;;19.80;60.30;;;;;;5021606;28;20060;-74
2022/06/11 10:39:01;;;;;;;9.52;2.25;;;19.80;60.40;;;;;;5032731;28;20028;-75
2022/06/11 10:42:03;;;;;;;11.30;2.17;;;19.80;60.40;;;;;;5016772;28;20025;-74
2022/06/11 10:44:52;;;;;;;14.93;2.63;;;19.80;60.70;;;;;;4951207;29;20055;-75
2022/06/11 10:47:18;;;;;;;11.45;2.00;;;19.80;60.30;;;;;;4928225;29;20038;-74
2022/06/11 10:49:45;;;;;;;10.63;2.28;;;19.80;60.60;;;;;;4935426;29;20080;-73
2022/06/11 10:52:39;;;;;;;10.27;1.88;;;19.80;60.50;;;;;;4920990;29;20038;-74
2022/06/11 10:55:06;;;;;;;11.80;2.60;;;19.80;60.00;;;;;;4935683;29;20043;-73
2022/06/11 10:57:32;;;;;;;11.27;2.22;;;19.80;60.30;;;;;;4904267;29;20067;-74
2022/06/11 11:00:05;;;;;;;11.07;2.35;;;19.80;60.20;;;;;;4904344;29;20082;-74
2022/06/11 11:02:41;;;;;;;10.10;2.20;;;19.90;60.40;;;;;;4919802;29;20058;-74
2022/06/11 11:05:09;;;;;;;12.27;2.63;;;19.80;60.50;;;;;;4935511;29;20036;-74
2022/06/11 11:07:50;;;;;;;11.05;2.40;;;19.90;60.10;;;;;;4935603;29;20027;-74
2022/06/11 11:10:19;;;;;;;10.57;2.08;;;19.90;60.40;;;;;;4935793;29;20024;-74
2022/06/11 11:12:45;;;;;;;12.98;2.95;;;19.90;60.30;;;;;;4935514;29;20051;-74
2022/06/11 11:15:14;;;;;;;11.65;2.70;;;19.80;60.10;;;;;;4919742;29;20044;-74
2022/06/11 11:18:10;;;;;;;11.15;2.05;;;19.80;59.80;;;;;;4935561;29;20031;-74
2022/06/11 11:20:39;;;;;;;12.45;2.40;;;19.80;59.90;;;;;;4923848;28;20477;-74
2022/06/11 11:23:14;;;;;;;12.40;2.38;;;19.80;60.10;;;;;;4977181;28;20037;-74
2022/06/11 11:25:51;;;;;;;9.63;1.83;;;19.90;60.70;;;;;;4976825;28;20089;-73
2022/06/11 11:28:53;;;;;;;12.50;2.42;;;19.90;60.60;;;;;;4976995;28;20022;-74
2022/06/11 11:31:27;;;;;;;12.80;2.55;;;19.90;61.00;;;;;;4999772;28;20057;-74
2022/06/11 11:34:11;;;;;;;14.60;2.53;;;19.90;60.90;;;;;;5033478;28;20017;-74
2022/06/11 11:36:36;;;;;;;12.23;1.95;;;19.90;61.10;;;;;;5044122;28;20530;-73
2022/06/11 11:39:17;;;;;;;10.98;2.15;;;19.90;60.70;;;;;;5036480;28;20120;-74
2022/06/11 11:42:12;;;;;;;11.48;2.03;;;19.90;60.90;;;;;;5054192;28;20404;-74
2022/06/11 11:44:51;;;;;;;12.15;3.20;;;19.90;60.90;;;;;;5053613;28;20411;-74
2022/06/11 11:47:20;;;;;;;10.95;2.58;;;19.90;61.50;;;;;;5037901;28;20021;-74
2022/06/11 11:49:51;;;;;;;12.15;2.47;;;19.90;61.00;;;;;;5052898;28;20045;-74
2022/06/11 11:52:19;;;;;;;14.05;2.88;;;20.00;60.80;;;;;;5036967;28;20020;-74
2022/06/11 11:55:04;;;;;;;8.45;1.88;;;20.00;60.70;;;;;;5053038;28;20025;-73
2022/06/11 11:57:31;;;;;;;10.48;2.10;;;20.00;61.00;;;;;;5053039;28;20028;-73
2022/06/11 12:00:05;;;;;;;10.43;2.47;;;20.00;60.80;;;;;;5036426;28;20024;-75
2022/06/11 12:02:46;;;;;;;10.77;2.53;;;20.00;60.80;;;;;;5037363;28;20020;-74
2022/06/11 12:05:27;;;;;;;13.80;2.35;;;20.00;60.70;;;;;;5021459;28;20396;-74
2022/06/11 12:07:53;;;;;;;11.65;2.17;;;20.00;60.20;;;;;;5052338;28;20532;-74
2022/06/11 12:10:37;;;;;;;10.88;2.30;;;20.00;60.00;;;;;;5036223;28;20368;-74
2022/06/11 12:13:03;;;;;;;9.23;2.25;;;20.00;60.70;;;;;;5036266;28;20025;-73
2022/06/11 12:15:31;;;;;;;9.80;2.03;;;20.00;60.50;;;;;;5052344;28;20372;-74
2022/06/11 12:18:09;;;;;;;14.57;2.30;;;20.00;60.20;;;;;;5053769;28;20025;-74
2022/06/11 12:20:42;;;;;;;11.98;2.67;;;20.00;60.10;;;;;;5053485;28;20053;-73
2022/06/11 12:23:33;;;;;;;12.25;2.25;;;20.00;59.80;;;;;;5053614;28;20587;-74
2022/06/11 12:26:10;;;;;;;13.90;2.92;;;20.10;60.00;;;;;;5037336;28;20025;-74
2022/06/11 12:28:44;;;;;;;9.52;2.08;;;20.10;59.80;;;;;;5050975;28;20025;-73
2022/06/11 12:31:13;;;;;;;14.60;2.55;;;20.10;59.80;;;;;;5032362;28;20041;-74
2022/06/11 12:33:43;;;;;;;14.77;2.88;;;20.10;59.60;;;;;;5032357;28;20025;-73
2022/06/11 12:36:40;;;;;;;13.00;2.17;;;20.20;60.00;;;;;;5037848;28;20055;-74
2022/06/11 12:39:30;;;;;;;13.70;2.85;;;20.20;59.90;;;;;;5052020;28;20487;-73
2022/06/11 12:42:11;;;;;;;15.82;2.72;;;20.10;59.40;;;;;;5053163;28;20506;-74
2022/06/11 12:44:39;;;;;;;13.75;2.25;;;20.10;59.40;;;;;;5052961;28;20049;-74
2022/06/11 12:47:45;;;;;;;16.00;2.90;;;20.10;59.40;;;;;;5053027;28;20021;-73
2022/06/11 12:50:21;;;;;;;13.05;2.60;;;20.20;59.70;;;;;;5050772;28;20596;-74
2022/06/11 12:53:09;;;;;;;14.43;2.20;;;20.20;59.50;;;;;;5034037;28;20040;-74
2022/06/11 12:56:31;;;;;;;13.15;2.75;;;20.20;59.30;;;;;;5050887;28;20041;-74
2022/06/11 12:59:06;;;;;;;12.55;2.13;;;20.20;59.40;;;;;;4972045;28;20493;-73
2022/06/11 13:01:52;;;;;;;11.93;2.08;;;20.20;59.30;;;;;;4971898;28;20058;-73
2022/06/11 13:04:36;;;;;;;8.75;2.33;;;20.20;59.20;;;;;;4971673;28;20066;-74
2022/06/11 13:07:49;;;;;;;12.05;2.42;;;20.30;59.10;;;;;;4957675;28;20110;-74
2022/06/11 13:10:17;;;;;;;14.30;2.45;;;20.30;59.10;;;;;;4963393;28;20043;-74
2022/06/11 13:12:51;;;;;;;11.50;2.33;;;20.30;58.70;;;;;;4971891;28;20109;-74